Data for 05/14/2007

Time Sea-Level Adjusted Pressure Absolute Pressure Temperature Relative Humidity Dew Point   
(mb) (inHg) (mb) (inHg) (C) (F) (%) (C) (F)
00:05 1022 30.18 851 25.13 7.8 46 88 6 42.8
00:10 1022 30.18 851 25.13 7.8 46 87 5.8 42.4
00:15 1022 30.18 851 25.13 7.9 46.2 87 5.8 42.4
00:20 1022 30.18 851 25.13 7.9 46.2 86 5.6 42.1
00:25 1022 30.18 851 25.13 7.9 46.2 87 5.8 42.4
00:30 1022 30.18 851 25.13 7.9 46.2 87 5.9 42.7
00:35 1022 30.18 851 25.13 7.8 46 87 5.8 42.4
00:40 1022 30.18 851 25.13 7.7 45.9 86 5.6 42
00:45 1022 30.18 851 25.13 7.8 46 85 5.5 41.9
00:50 1022 30.18 851 25.13 7.8 46.1 83 5.2 41.4
00:55 1022 30.18 851 25.13 8.1 46.5 83 5.3 41.6
01:00 1022 30.18 851 25.13 8.2 46.8 83 5.5 41.9
01:05 1022 30.18 851 25.13 8.4 47.2 82 5.5 42
01:10 1022 30.18 851 25.13 8.3 46.9 79 4.8 40.6
01:15 1022 30.18 851 25.13 8.2 46.8 75 4.1 39.4
01:20 1022 30.18 852 25.16 8.2 46.8 76 4.3 39.7
01:25 1022 30.18 852 25.16 8.1 46.5 77 4.3 39.8
01:30 1022 30.18 852 25.16 8 46.4 76 4 39.2
01:35 1022 30.18 852 25.16 8 46.4 76 4.1 39.4
01:40 1022 30.18 852 25.16 8 46.3 79 4.6 40.3
01:45 1022 30.18 852 25.16 7.9 46.2 84 5.3 41.5
01:50 1022 30.18 852 25.16 7.8 46 84 5.3 41.5
01:55 1022 30.18 852 25.16 7.8 46 83 5.2 41.3
02:00 1022 30.18 852 25.16 7.7 45.9 84 5.1 41.3
02:05 1022 30.18 852 25.16 7.7 45.8 84 5.2 41.4
02:10 1022 30.18 852 25.16 7.6 45.6 83 4.9 40.8
02:15 1022 30.18 852 25.16 7.6 45.6 83 4.8 40.7
02:20 1022 30.18 852 25.16 7.5 45.6 83 4.8 40.6
02:25 1022 30.18 852 25.16 7.5 45.5 83 4.9 40.7
02:30 1022 30.18 852 25.16 7.4 45.3 84 4.8 40.6
02:35 1022 30.18 852 25.16 7.3 45.1 84 4.8 40.7
02:40 1022 30.18 852 25.16 7.2 45 84 4.6 40.3
02:45 1022 30.18 852 25.16 7.1 44.8 84 4.6 40.3
02:50 1022 30.18 852 25.16 6.8 44.3 83 4.1 39.3
02:55 1022 30.18 852 25.16 6.6 43.8 84 4 39.2
03:00 1022 30.18 852 25.16 6.3 43.4 82 3.5 38.3
03:05 1022 30.18 852 25.16 6.3 43.3 81 3.3 38
03:10 1022 30.18 852 25.16 6.2 43.1 79 2.9 37.2
03:15 1022 30.18 852 25.16 6.3 43.3 78 2.8 37.1
03:20 1023 30.21 852 25.16 6.3 43.3 78 2.7 36.8
03:25 1023 30.21 852 25.16 6.1 43 79 2.7 36.9
03:30 1023 30.21 852 25.16 6 42.8 79 2.7 36.8
03:35 1023 30.21 852 25.16 6 42.8 77 2.2 36
03:40 1023 30.21 852 25.16 6 42.9 76 2.1 35.8
03:45 1023 30.21 852 25.16 6 42.8 77 2.2 36
03:50 1023 30.21 852 25.16 5.9 42.6 78 2.3 36.2
03:55 1023 30.21 852 25.16 5.9 42.6 74 1.7 35.1
04:00 1023 30.21 852 25.16 6 42.8 75 1.8 35.3
04:05 1023 30.21 852 25.16 6.1 43 74 1.8 35.3
04:10 1023 30.21 852 25.16 6.2 43.2 73 1.6 35
04:15 1023 30.21 852 25.16 6.3 43.4 71 1.5 34.7
04:20 1023 30.21 852 25.16 6.2 43.2 72 1.6 34.8
04:25 1023 30.21 852 25.16 6.2 43.2 73 1.7 35.1
04:30 1023 30.21 852 25.16 6.2 43.2 73 1.7 35
04:35 1023 30.21 852 25.16 6.2 43.2 72 1.6 35
04:40 1023 30.21 852 25.16 6.3 43.3 70 1.3 34.4
04:45 1023 30.21 852 25.16 6.3 43.3 71 1.4 34.4
04:50 1023 30.21 853 25.19 6.4 43.5 72 1.7 35
04:55 1023 30.21 853 25.19 6.4 43.5 72 1.7 35
05:00 1023 30.21 853 25.19 6.1 43 75 2 35.7
05:05 1023 30.21 853 25.19 5.6 42.2 79 2.3 36.1
05:10 1023 30.21 853 25.19 5.2 41.4 79 2 35.5
05:15 1023 30.21 853 25.19 5 41 78 1.4 34.6
05:20 1023 30.21 853 25.19 4.9 40.9 78 1.4 34.4
05:25 1023 30.21 853 25.19 4.8 40.7 78 1.3 34.3
05:30 1023 30.21 853 25.19 4.6 40.3 80 1.5 34.7
05:35 1024 30.24 853 25.19 4.5 40.1 80 1.4 34.5
05:40 1024 30.24 853 25.19 4.4 39.9 80 1.2 34.2
05:45 1024 30.24 853 25.19 4.3 39.7 80 1.1 34
05:50 1024 30.24 853 25.19 4.3 39.7 79 0.9 33.7
05:55 1024 30.24 853 25.19 4.3 39.8 78 0.8 33.4
06:00 1024 30.24 853 25.19 4.3 39.7 78 0.8 33.5
06:05 1024 30.24 853 25.19 4 39.1 81 1 33.8
06:10 1024 30.24 853 25.19 3.8 38.8 82 1 33.8
06:15 1024 30.24 853 25.19 3.7 38.6 84 1.2 34.2
06:20 1024 30.24 853 25.19 3.7 38.7 84 1.3 34.3
06:25 1024 30.24 853 25.19 4 39.1 79 0.6 33
06:30 1024 30.24 853 25.19 4.2 39.6 78 0.8 33.4
06:35 1024 30.24 853 25.19 4.5 40.1 78 0.9 33.7
06:40 1024 30.24 853 25.19 4.6 40.3 77 1 33.8
06:45 1024 30.24 854 25.22 4.6 40.2 78 1.1 34
06:50 1024 30.24 854 25.22 4.8 40.6 77 1 33.8
06:55 1024 30.24 854 25.22 5.1 41.2 76 1.3 34.3
07:00 1025 30.27 854 25.22 5.2 41.3 77 1.6 34.8
07:05 1025 30.27 854 25.22 5.5 41.9 73 1 33.8
07:10 1025 30.27 854 25.22 5.5 41.9 74 1.3 34.3
07:15 1025 30.27 854 25.22 5.9 42.6 74 1.7 35
07:20 1025 30.27 854 25.22 5.5 41.9 76 1.6 34.9
07:25 1025 30.27 854 25.22 5.4 41.7 77 1.7 35.1
07:30 1025 30.27 854 25.22 6 42.7 74 1.8 35.2
07:35 1025 30.27 854 25.22 6.7 44.1 71 1.9 35.4
07:40 1025 30.27 854 25.22 7 44.6 70 2 35.5
07:45 1025 30.27 854 25.22 7 44.6 70 2 35.5
07:50 1025 30.27 854 25.22 7.2 45 71 2.3 36.1
07:55 1025 30.27 854 25.22 7.4 45.3 71 2.4 36.4
08:00 1025 30.27 854 25.22 8.1 46.5 67 2.2 36
08:05 1025 30.27 854 25.22 8.5 47.3 65 2.2 36
08:10 1025 30.27 854 25.22 8.6 47.5 64 2.2 36
08:15 1025 30.27 854 25.22 8.7 47.7 61 1.7 35.1
08:20 1025 30.27 854 25.22 8.6 47.5 62 1.8 35.3
08:25 1025 30.27 855 25.25 8.7 47.7 56 0.4 32.7
08:30 1025 30.27 855 25.25 8.8 47.9 56 0.5 33
08:35 1025 30.27 855 25.25 9.2 48.5 57 1.1 34.1
08:40 1025 30.27 855 25.25 9.6 49.2 55 1 33.8
08:45 1026 30.3 855 25.25 9.4 48.9 57 1.4 34.5
08:50 1026 30.3 855 25.25 9 48.2 58 1.1 34
08:55 1026 30.3 855 25.25 9 48.2 56 0.8 33.4
09:00 1026 30.3 855 25.25 9.2 48.5 54 0.4 32.7
09:05 1026 30.3 855 25.25 9.3 48.8 54 0.6 33.1
09:10 1026 30.3 855 25.25 9.3 48.8 54 0.6 33.1
09:15 1026 30.3 855 25.25 9.6 49.2 52 0.3 32.5
09:20 1026 30.3 855 25.25 9.8 49.6 54 1 33.7
09:25 1026 30.3 855 25.25 9.1 48.4 55 0.6 33.1
09:30 1026 30.3 855 25.25 9.4 49 54 0.5 32.9
09:35 1026 30.3 855 25.25 9.6 49.4 49 -0.5 31.1
09:40 1026 30.3 855 25.25 10.1 50.1 47 -0.6 31
09:45 1026 30.3 855 25.25 10.2 50.3 48 -0.4 31.3
09:50 1026 30.3 855 25.25 10.4 50.7 46 -0.6 30.9
09:55 1026 30.3 855 25.25 10.4 50.7 47 -0.3 31.4
10:00 1026 30.3 855 25.25 10.6 51 46 -0.4 31.3
10:05 1026 30.3 855 25.25 10.9 51.5 48 0.3 32.5
10:10 1026 30.3 855 25.25 10.5 51 49 0.4 32.7
10:15 1026 30.3 855 25.25 10.6 51.1 49 0.3 32.5
10:20 1026 30.3 855 25.25 10.7 51.3 45 -0.8 30.6
10:25 1026 30.3 855 25.25 11.1 51.9 46 0 32.1
10:30 1026 30.3 855 25.25 11.4 52.4 43 -0.8 30.6
10:35 1026 30.3 855 25.25 11.3 52.3 45 -0.3 31.5
10:40 1026 30.3 855 25.25 10.7 51.2 47 -0.3 31.5
10:45 1026 30.3 855 25.25 11.3 52.3 42 -1.2 29.8
10:50 1026 30.3 855 25.25 11.5 52.8 44 -0.1 31.7
10:55 1026 30.3 855 25.25 11.2 52.2 42 -1.3 29.7
11:00 1026 30.3 855 25.25 11.7 53 37 -2.6 27.4
11:05 1026 30.3 855 25.25 12 53.6 39 -1.4 29.4
11:10 1026 30.3 855 25.25 11.1 52 44 -0.5 31
11:15 1026 30.3 855 25.25 11.2 52.1 45 -0.2 31.7
11:20 1026 30.3 855 25.25 10.4 50.8 47 -0.3 31.5
11:25 1026 30.3 855 25.25 10.1 50.2 46 -1.1 30.1
11:30 1026 30.3 855 25.25 11.5 52.8 40 -1.4 29.5
11:35 1026 30.3 855 25.25 11.9 53.3 39 -1.6 29.1
11:40 1026 30.3 855 25.25 12.6 54.7 38 -1.2 29.9
11:45 1026 30.3 855 25.25 12.6 54.7 38 -1.2 29.8
11:50 1026 30.3 855 25.25 12.5 54.6 40 -0.6 30.9
11:55 1026 30.3 855 25.25 12.7 54.9 39 -1 30.3
12:00 1026 30.3 855 25.25 12.2 53.9 38 -1.7 29
12:05 1026 30.3 855 25.25 12 53.7 38 -1.9 28.7
12:10 1026 30.3 855 25.25 12.4 54.2 35 -2.6 27.3
12:15 1026 30.3 855 25.25 12.3 54.1 38 -1.7 29
12:20 1026 30.3 855 25.25 12.8 55.1 38 -1 30.1
12:25 1026 30.3 855 25.25 12.2 54 38 -1.5 29.3
12:30 1026 30.3 855 25.25 11.8 53.2 38 -2 28.5
12:35 1026 30.3 855 25.25 12.1 53.7 38 -1.9 28.7
12:40 1026 30.3 855 25.25 11.9 53.5 40 -1.2 29.9
12:45 1026 30.3 855 25.25 12.2 54 38 -1.7 29
12:50 1026 30.3 855 25.25 12.5 54.4 35 -2.3 27.8
12:55 1026 30.3 855 25.25 13.8 56.8 34 -1.7 28.9
13:00 1026 30.3 855 25.25 13.1 55.6 37 -1.2 29.8
13:05 1026 30.3 855 25.25 12.6 54.7 37 -1.7 28.9
13:10 1026 30.3 855 25.25 13.3 56 35 -1.8 28.8
13:15 1026 30.3 855 25.25 13.4 56.1 38 -0.6 31
13:20 1026 30.3 855 25.25 13.3 56 38 -0.6 31
13:25 1026 30.3 855 25.25 13.7 56.7 37 -0.8 30.6
13:30 1026 30.3 855 25.25 13.7 56.7 34 -1.8 28.8
13:35 1026 30.3 855 25.25 13.8 56.9 33 -1.9 28.5
13:40 1026 30.3 855 25.25 13.9 57 36 -1 30.2
13:45 1026 30.3 855 25.25 14.7 58.5 33 -1.5 29.3
13:50 1026 30.3 855 25.25 14.1 57.4 35 -1.1 30
13:55 1026 30.3 855 25.25 12.9 55.2 36 -1.6 29.1
14:00 1026 30.3 855 25.25 13.9 57 33 -1.9 28.5
14:05 1026 30.3 855 25.25 14.2 57.6 34 -1.2 29.8
14:10 1026 30.3 856 25.28 13.2 55.8 38 -0.6 30.8
14:15 1026 30.3 856 25.28 11.7 53.1 41 -1.1 30.1
14:20 1026 30.3 856 25.28 12.4 54.3 39 -1 30.2
14:25 1026 30.3 856 25.28 12.5 54.5 39 -1 30.1
14:30 1026 30.3 856 25.28 13.2 55.7 36 -1.7 29
14:35 1026 30.3 856 25.28 14 57.2 37 -0.5 31.1
14:40 1027 30.33 856 25.28 12.5 54.5 42 -0.1 31.9
14:45 1027 30.33 856 25.28 12.5 54.4 40 -0.9 30.4
14:50 1027 30.33 856 25.28 14.1 57.3 35 -1.2 29.9
14:55 1027 30.33 856 25.28 13.8 56.9 39 0.3 32.5
15:00 1027 30.33 856 25.28 13.8 56.8 35 -1.4 29.5
15:05 1027 30.33 856 25.28 13.8 56.9 37 -0.5 31.1
15:10 1027 30.33 856 25.28 14.1 57.3 35 -1.3 29.7
15:15 1027 30.33 856 25.28 14.8 58.6 34 -0.8 30.5
15:20 1027 30.33 856 25.28 14.7 58.4 34 -0.7 30.7
15:25 1027 30.33 856 25.28 13.7 56.7 37 -0.8 30.6
15:30 1027 30.33 856 25.28 14.1 57.4 33 -1.7 28.9
15:35 1027 30.33 856 25.28 14.7 58.4 33 -1.4 29.5
15:40 1027 30.33 856 25.28 15.4 59.7 32 -1.1 30
15:45 1027 30.33 856 25.28 15.5 60 32 -0.9 30.3
15:50 1027 30.33 856 25.28 15.2 59.4 32 -1.3 29.7
15:55 1027 30.33 856 25.28 15.2 59.4 33 -0.8 30.5
16:00 1027 30.33 856 25.28 13.8 56.9 37 -0.5 31.1
16:05 1027 30.33 856 25.28 13.2 55.7 34 -2.2 28.1
16:10 1027 30.33 856 25.28 13.4 56 34 -2.2 28
16:15 1026 30.3 856 25.28 14 57.2 34 -1.7 29
16:20 1027 30.33 856 25.28 14.4 57.8 33 -1.8 28.8
16:25 1027 30.33 856 25.28 14.5 58 33 -1.5 29.3
16:30 1027 30.33 856 25.28 14.6 58.2 32 -1.7 29
16:35 1027 30.33 856 25.28 14.9 58.7 32 -1.6 29.2
16:40 1027 30.33 856 25.28 14.9 58.8 32 -1.6 29.1
16:45 1027 30.33 856 25.28 14.9 58.8 32 -1.7 28.9
16:50 1027 30.33 856 25.28 14.6 58.3 34 -1.2 29.9
16:55 1027 30.33 856 25.28 14.1 57.4 35 -1.1 30
17:00 1027 30.33 856 25.28 13.6 56.5 34 -1.9 28.6
17:05 1026 30.3 856 25.28 13.9 56.9 33 -2 28.4
17:10 1026 30.3 856 25.28 13.6 56.4 34 -2.1 28.2
17:15 1027 30.33 856 25.28 13 55.4 35 -2.2 28
17:20 1027 30.33 856 25.28 12.7 54.9 35 -2.4 27.7
17:25 1027 30.33 856 25.28 13.5 56.2 31 -3.3 26
17:30 1027 30.33 856 25.28 14.1 57.4 33 -1.8 28.7
17:35 1027 30.33 856 25.28 13.8 56.9 33 -2.2 28.1
17:40 1027 30.33 856 25.28 14.2 57.6 33 -2 28.5
17:45 1027 30.33 856 25.28 13.8 56.8 33 -2.1 28.3
17:50 1026 30.3 856 25.28 14.1 57.4 33 -1.9 28.5
17:55 1027 30.33 856 25.28 14.7 58.5 33 -1.4 29.5
18:00 1027 30.33 856 25.28 14.7 58.5 31 -2 28.4
18:05 1026 30.3 856 25.28 14.6 58.3 32 -1.6 29.1
18:10 1026 30.3 856 25.28 14.6 58.3 33 -1.6 29.1
18:15 1026 30.3 856 25.28 13.7 56.7 34 -1.8 28.8
18:20 1026 30.3 856 25.28 13.6 56.4 35 -1.4 29.5
18:25 1026 30.3 856 25.28 14.2 57.5 34 -1.5 29.3
18:30 1026 30.3 856 25.28 14.4 57.9 33 -1.8 28.8
18:35 1026 30.3 856 25.28 14.4 58 32 -2 28.5
18:40 1026 30.3 856 25.28 14.5 58 33 -1.7 29
18:45 1026 30.3 856 25.28 14.8 58.6 32 -1.5 29.3
18:50 1026 30.3 856 25.28 14.4 58 34 -1.3 29.7
18:55 1026 30.3 856 25.28 14.3 57.7 33 -1.8 28.8
19:00 1026 30.3 856 25.28 13.9 57 33 -1.8 28.7
19:05 1026 30.3 856 25.28 13.8 56.9 33 -2.1 28.3
19:10 1026 30.3 856 25.28 13.6 56.5 33 -2.4 27.7
19:15 1026 30.3 855 25.25 12.8 55.1 34 -2.6 27.4
19:20 1026 30.3 855 25.25 12.5 54.6 35 -2.6 27.4
19:25 1026 30.3 855 25.25 12.9 55.2 34 -2.6 27.2
19:30 1026 30.3 856 25.28 13 55.3 35 -2.2 28.1
19:35 1026 30.3 856 25.28 12.9 55.3 35 -2 28.4
19:40 1026 30.3 856 25.28 12.8 55.1 35 -2.1 28.2
19:45 1026 30.3 856 25.28 12.6 54.6 35 -2.4 27.7
19:50 1026 30.3 856 25.28 12.3 54.1 37 -1.8 28.7
19:55 1026 30.3 856 25.28 12 53.7 38 -2 28.5
20:00 1026 30.3 856 25.28 12 53.5 38 -2 28.5
20:05 1026 30.3 856 25.28 12.2 53.9 37 -2 28.4
20:10 1026 30.3 856 25.28 11.9 53.5 38 -1.9 28.7
20:15 1026 30.3 856 25.28 11.8 53.3 38 -2 28.4
20:20 1026 30.3 856 25.28 11.7 53.1 38 -2 28.4
20:25 1026 30.3 856 25.28 11.8 53.2 40 -1.3 29.6
20:30 1027 30.33 856 25.28 11.6 52.8 45 0.1 32.2
20:35 1027 30.33 856 25.28 11 51.9 49 0.8 33.5
20:40 1027 30.33 856 25.28 10.8 51.4 52 1.5 34.6
20:45 1027 30.33 856 25.28 10.4 50.7 54 1.6 34.8
20:50 1027 30.33 856 25.28 10.3 50.5 55 1.8 35.2
20:55 1027 30.33 856 25.28 10.2 50.3 55 1.5 34.8
21:00 1027 30.33 856 25.28 10.1 50.1 55 1.4 34.6
21:05 1027 30.33 856 25.28 10.1 50.1 53 0.9 33.6
21:10 1027 30.33 856 25.28 10.1 50.2 54 1.4 34.4
21:15 1027 30.33 856 25.28 9.8 49.6 56 1.4 34.5
21:20 1027 30.33 856 25.28 9.7 49.4 56 1.3 34.4
21:25 1027 30.33 856 25.28 9.6 49.2 56 1.4 34.4
21:30 1027 30.33 856 25.28 9.4 49 56 1.2 34.2
21:35 1027 30.33 856 25.28 9.3 48.8 57 1.3 34.3
21:40 1027 30.33 856 25.28 9.2 48.6 58 1.4 34.5
21:45 1027 30.33 856 25.28 9.1 48.4 58 1.3 34.4
21:50 1027 30.33 856 25.28 9 48.2 58 1.3 34.3
21:55 1027 30.33 856 25.28 8.9 48 58 1.2 34.2
22:00 1027 30.33 856 25.28 8.6 47.5 60 1.3 34.4
22:05 1027 30.33 856 25.28 8.3 47 61 1.2 34.2
22:10 1027 30.33 856 25.28 8.2 46.7 62 1.4 34.5
22:15 1027 30.33 856 25.28 8 46.4 63 1.3 34.4
22:20 1027 30.33 856 25.28 7.9 46.2 63 1.3 34.3
22:25 1027 30.33 857 25.31 7.8 46.1 63 1.2 34.2
22:30 1027 30.33 857 25.31 7.7 45.9 63 1.2 34.1
22:35 1027 30.33 857 25.31 7.6 45.7 63 1.1 33.9
22:40 1027 30.33 857 25.31 7.6 45.6 63 1 33.9
22:45 1027 30.33 857 25.31 7.4 45.4 64 1.1 33.9
22:50 1027 30.33 857 25.31 7.2 44.9 65 1.1 33.9
22:55 1027 30.33 857 25.31 7 44.6 66 1 33.9
23:00 1028 30.36 857 25.31 6.9 44.3 66 0.9 33.7
23:05 1028 30.36 857 25.31 6.8 44.3 66 0.8 33.5
23:10 1028 30.36 857 25.31 6.7 44.1 66 0.8 33.4
23:15 1027 30.33 857 25.31 6.7 44.1 65 0.7 33.3
23:20 1028 30.36 857 25.31 6.7 44 65 0.5 32.8
23:25 1027 30.33 857 25.31 6.7 44.1 64 0.4 32.8
23:30 1027 30.33 857 25.31 6.7 44 64 0.3 32.6
23:35 1027 30.33 857 25.31 6.6 43.9 64 0.4 32.7
23:40 1027 30.33 857 25.31 6.5 43.7 65 0.4 32.6
23:45 1027 30.33 857 25.31 6.5 43.6 64 0.2 32.3
23:50 1027 30.33 857 25.31 6.4 43.6 64 0.2 32.4
23:55 1027 30.33 857 25.31 6.3 43.4 64 0.1 32.1
24:00 1027 30.33 857 25.31 6.3 43.3 65 0.2 32.3